Time;durP1;ratioP1;P1;durP2;ratioP2;P2;SDS_P1;SDS_P2;PMS_P1;PMS_P2;Temp;Humidity;BMP_temperature;BMP_pressure;BME280_temperature;BME280_humidity;BME280_pressure;Samples;Min_cycle;Max_cycle;Signal;HPM_P1;HPM_P2
2021/06/27 00:01:03;;;;;;;;;0.00;0.00;;;;;20.82;63.47;100866.50;5123144;27;45634;-67
2021/06/27 00:03:28;;;;;;;;;0.00;0.00;;;;;20.82;63.39;100863.84;5104290;27;45384;-68
2021/06/27 00:05:55;;;;;;;;;0.00;0.00;;;;;20.83;63.61;100862.00;5106864;27;45347;-68
2021/06/27 00:08:20;;;;;;;;;0.00;0.00;;;;;20.84;63.59;100874.31;5111264;27;45333;-67
2021/06/27 00:10:46;;;;;;;;;0.00;0.00;;;;;20.87;63.71;100881.97;5104565;27;45199;-66
2021/06/27 00:13:12;;;;;;;;;0.00;0.00;;;;;20.85;63.72;100884.81;5114191;27;46116;-67
2021/06/27 00:15:42;;;;;;;;;0.00;0.00;;;;;20.89;63.57;100893.31;5117669;27;45426;-68
2021/06/27 00:18:09;;;;;;;;;0.00;0.00;;;;;20.89;63.64;100887.97;5122898;27;45334;-68
2021/06/27 00:20:37;;;;;;;;;0.00;0.00;;;;;20.90;63.61;100877.06;5103842;27;45432;-68
2021/06/27 00:23:03;;;;;;;;;4.00;1.00;;;;;20.88;63.63;100881.81;5122587;27;45543;-67
2021/06/27 00:25:31;;;;;;;;;0.00;0.00;;;;;20.87;63.84;100882.78;5122467;27;45229;-67
2021/06/27 00:27:57;;;;;;;;;0.00;0.00;;;;;20.86;63.75;100889.16;5122432;27;45370;-67
2021/06/27 00:30:23;;;;;;;;;0.00;0.00;;;;;20.84;63.65;100877.84;5122874;27;45404;-68
2021/06/27 00:32:49;;;;;;;;;0.00;0.00;;;;;20.88;63.71;100903.16;5122546;27;45406;-68
2021/06/27 00:35:16;;;;;;;;;0.00;0.00;;;;;20.85;64.44;100903.50;5103593;27;45313;-68
2021/06/27 00:37:42;;;;;;;;;0.00;0.00;;;;;20.86;63.99;100899.84;5122528;27;45244;-68
2021/06/27 00:40:10;;;;;;;;;0.00;0.00;;;;;20.85;64.57;100906.19;5122522;27;45414;-67
2021/06/27 00:42:36;;;;;;;;;0.00;0.00;;;;;20.85;64.89;100903.50;5122128;27;45506;-67
2021/06/27 00:45:04;;;;;;;;;0.00;0.00;;;;;20.87;64.21;100900.66;5122130;27;45414;-67
2021/06/27 00:47:31;;;;;;;;;0.00;0.00;;;;;20.87;64.35;100906.81;5122230;27;45362;-68
2021/06/27 00:49:57;;;;;;;;;0.00;0.00;;;;;20.86;64.66;100901.66;5103420;27;45279;-66
2021/06/27 00:52:23;;;;;;;;;0.00;0.00;;;;;20.87;64.25;100903.34;5122103;27;46475;-67
2021/06/27 00:54:48;;;;;;;;;0.00;0.00;;;;;20.86;64.83;100890.97;5122091;27;45191;-67
2021/06/27 00:57:14;;;;;;;;;0.00;0.00;;;;;20.87;64.98;100901.50;5121982;27;45344;-68
2021/06/27 00:59:39;;;;;;;;;0.00;0.00;;;;;20.86;65.35;100899.84;5121987;27;45450;-67
2021/06/27 01:02:05;;;;;;;;;0.00;0.00;;;;;20.84;66.05;100896.53;5121947;27;46591;-67
2021/06/27 01:04:31;;;;;;;;;0.00;0.00;;;;;20.84;65.31;100888.53;5099402;27;45645;-68
2021/06/27 01:06:56;;;;;;;;;0.00;0.00;;;;;20.83;65.91;100891.34;5101792;27;45355;-67
2021/06/27 01:09:21;;;;;;;;;0.00;0.00;;;;;20.78;68.92;100894.59;5082913;27;45319;-67
2021/06/27 01:11:47;;;;;;;;;0.00;0.00;;;;;20.72;67.03;100878.47;5101051;27;46351;-67
2021/06/27 01:14:12;;;;;;;;;0.00;0.00;;;;;20.67;67.31;100861.16;5082671;27;45404;-67
2021/06/27 01:16:40;;;;;;;;;0.00;0.00;;;;;20.59;66.95;100844.41;5101677;27;45323;-66
2021/06/27 01:19:07;;;;;;;;;0.00;0.00;;;;;20.50;68.17;100843.63;5122936;27;45510;-66
2021/06/27 01:21:35;;;;;;;;;0.00;0.00;;;;;20.39;68.08;100844.88;5125898;27;46531;-67
2021/06/27 01:24:01;;;;;;;;;0.00;0.00;;;;;20.30;67.98;100848.63;5125243;27;45223;-67
2021/06/27 01:26:26;;;;;;;;;0.00;0.00;;;;;20.20;68.67;100842.72;5125575;27;45462;-66
2021/06/27 01:28:52;;;;;;;;;0.00;0.00;;;;;20.13;68.68;100841.75;5125501;27;45282;-68
2021/06/27 01:31:18;;;;;;;;;0.00;0.00;;;;;20.11;68.47;100859.78;5125402;27;45343;-67
2021/06/27 01:33:47;;;;;;;;;0.00;0.00;;;;;20.05;68.70;100859.50;5125178;27;45387;-68
2021/06/27 01:36:13;;;;;;;;;2.50;2.00;;;;;20.08;69.19;100869.78;5125294;27;45268;-67
2021/06/27 01:38:38;;;;;;;;;0.00;0.00;;;;;20.07;68.75;100870.81;5125572;27;45404;-68
2021/06/27 01:41:05;;;;;;;;;0.00;0.00;;;;;20.12;68.92;100853.47;5125327;27;46355;-68
2021/06/27 01:43:31;;;;;;;;;0.00;0.00;;;;;20.18;68.93;100848.22;5125349;27;45232;-68
2021/06/27 01:46:02;;;;;;;;;0.00;0.00;;;;;20.24;68.09;100836.84;5125658;27;45355;-66
2021/06/27 01:48:33;;;;;;;;;0.00;0.00;;;;;20.29;68.92;100845.13;5125280;27;45293;-68
2021/06/27 01:51:00;;;;;;;;;0.00;0.00;;;;;20.35;68.82;100856.09;5125316;27;45654;-67
2021/06/27 01:53:29;;;;;;;;;0.00;0.00;;;;;20.40;68.33;100843.88;5106720;27;45361;-67
2021/06/27 01:56:05;;;;;;;;;0.00;0.00;;;;;20.44;68.27;100829.16;5125014;27;45359;-67
2021/06/27 01:58:52;;;;;;;;;0.00;0.00;;;;;20.47;68.12;100817.28;5125449;27;45255;-67
2021/06/27 02:01:30;;;;;;;;;0.00;0.00;;;;;20.49;67.86;100828.59;5124986;27;45523;-67
2021/06/27 02:03:56;;;;;;;;;0.00;0.00;;;;;20.45;68.20;100827.31;5124404;27;45345;-66
2021/06/27 02:06:24;;;;;;;;;0.00;0.00;;;;;20.39;67.90;100823.56;5105193;27;45321;-66
2021/06/27 02:08:51;;;;;;;;;0.00;0.00;;;;;20.39;67.83;100826.22;5117024;27;45353;-66
2021/06/27 02:11:21;;;;;;;;;0.00;0.00;;;;;20.39;68.31;100826.22;5124755;27;46525;-66
2021/06/27 02:13:47;;;;;;;;;0.00;0.00;;;;;20.38;68.25;100815.72;5112537;27;45598;-67
2021/06/27 02:16:13;;;;;;;;;0.00;0.00;;;;;20.40;68.36;100800.34;5123888;27;45319;-66
2021/06/27 02:18:43;;;;;;;;;0.00;0.00;;;;;20.40;68.74;100806.50;5125027;27;45247;-67
2021/06/27 02:21:13;;;;;;;;;0.00;0.00;;;;;20.38;68.52;100800.53;5085888;27;47462;-67
2021/06/27 02:23:42;;;;;;;;;0.00;0.00;;;;;20.37;68.95;100784.72;5119400;27;45241;-67
2021/06/27 02:26:08;;;;;;;;;0.00;0.00;;;;;20.35;68.40;100787.56;5124941;27;45259;-67
2021/06/27 02:28:34;;;;;;;;;0.00;0.00;;;;;20.31;69.41;100775.59;5124485;27;45439;-66
2021/06/27 02:31:01;;;;;;;;;0.00;0.00;;;;;20.27;68.38;100761.81;5124693;27;45447;-66
2021/06/27 02:33:28;;;;;;;;;0.00;0.00;;;;;20.26;68.37;100760.16;5124553;27;45380;-66
2021/06/27 02:35:54;;;;;;;;;0.00;0.00;;;;;20.22;68.90;100753.53;5106474;27;45218;-67
2021/06/27 02:38:19;;;;;;;;;0.00;0.00;;;;;20.18;69.02;100752.22;5124706;27;45164;-67
2021/06/27 02:40:45;;;;;;;;;0.00;0.00;;;;;20.14;69.36;100744.78;5124497;27;45577;-65
2021/06/27 02:43:11;;;;;;;;;0.00;0.00;;;;;20.07;69.10;100736.69;5124098;27;45341;-68
2021/06/27 02:45:37;;;;;;;;;0.00;0.00;;;;;20.05;69.98;100736.03;5088934;27;45324;-66
2021/06/27 02:48:04;;;;;;;;;0.00;0.00;;;;;20.00;69.17;100731.25;5124570;27;45393;-67
2021/06/27 02:50:29;;;;;;;;;0.00;0.00;;;;;20.00;69.08;100730.41;5124145;27;45410;-67
2021/06/27 02:52:54;;;;;;;;;0.00;0.00;;;;;19.96;69.38;100726.47;5105702;27;45196;-67
2021/06/27 02:55:20;;;;;;;;;0.00;0.00;;;;;19.90;69.86;100717.34;5106067;27;45348;-67
2021/06/27 02:57:45;;;;;;;;;1.00;1.00;;;;;19.84;69.56;100716.22;5124290;27;45330;-67
2021/06/27 03:00:17;;;;;;;;;0.00;0.00;;;;;19.81;70.28;100721.09;5124473;27;45258;-67
2021/06/27 03:02:43;;;;;;;;;0.00;0.00;;;;;19.74;70.67;100720.13;5123711;27;45316;-67
2021/06/27 03:05:09;;;;;;;;;0.00;0.00;;;;;19.71;70.07;100718.66;5095508;27;45278;-67
2021/06/27 03:07:35;;;;;;;;;0.00;0.00;;;;;19.68;70.27;100713.69;5103995;27;45334;-67
2021/06/27 03:10:00;;;;;;;;;0.00;0.00;;;;;19.64;70.99;100712.38;5113865;27;45393;-66
2021/06/27 03:12:26;;;;;;;;;0.75;0.75;;;;;19.61;70.88;100705.56;5102507;27;45711;-66
2021/06/27 03:14:51;;;;;;;;;0.00;0.00;;;;;19.63;70.41;100708.88;5113919;27;45241;-67
2021/06/27 03:17:16;;;;;;;;;0.00;0.00;;;;;19.62;70.22;100704.56;5105793;27;45694;-67
2021/06/27 03:19:42;;;;;;;;;0.00;0.00;;;;;19.62;70.56;100720.53;5124010;27;46355;-67
2021/06/27 03:22:07;;;;;;;;;0.00;0.00;;;;;19.63;70.67;100711.56;5105509;27;45287;-68
2021/06/27 03:24:32;;;;;;;;;0.00;0.00;;;;;19.70;70.37;100716.16;5124400;27;45325;-67
2021/06/27 03:26:58;;;;;;;;;0.00;0.00;;;;;19.73;69.87;100715.81;5124520;27;45151;-67
2021/06/27 03:29:23;;;;;;;;;0.00;0.00;;;;;19.75;70.02;100724.47;5123801;27;45479;-67
2021/06/27 03:31:49;;;;;;;;;0.00;0.00;;;;;19.80;70.29;100722.09;5124099;27;45411;-67
2021/06/27 03:34:14;;;;;;;;;0.00;0.00;;;;;19.87;70.14;100721.19;5105507;27;45776;-67
2021/06/27 03:36:39;;;;;;;;;0.00;0.00;;;;;19.93;69.53;100724.97;5105690;27;45241;-67
2021/06/27 03:39:10;;;;;;;;;0.00;0.00;;;;;19.99;69.89;100726.91;5104770;27;48363;-67
2021/06/27 03:41:40;;;;;;;;;0.00;0.00;;;;;20.06;69.35;100725.19;5104432;27;45325;-67
2021/06/27 03:44:06;;;;;;;;;0.00;0.00;;;;;20.07;68.90;100713.50;5105163;27;45260;-67
2021/06/27 03:46:31;;;;;;;;;0.00;0.00;;;;;20.03;69.24;100696.22;5104802;27;45375;-66
2021/06/27 03:48:57;;;;;;;;;0.00;0.00;;;;;20.01;68.92;100697.41;5123505;27;45511;-67
2021/06/27 03:51:23;;;;;;;;;0.00;0.00;;;;;19.96;69.28;100694.47;5123585;27;45351;-66
2021/06/27 03:53:48;;;;;;;;;0.00;0.00;;;;;19.98;68.91;100711.94;5105233;27;45304;-66
2021/06/27 03:56:15;;;;;;;;;0.00;0.00;;;;;20.01;69.22;100713.41;5105058;27;45306;-67
2021/06/27 03:58:41;;;;;;;;;0.00;0.00;;;;;20.01;69.24;100722.22;5123439;27;46173;-67
2021/06/27 04:01:06;;;;;;;;;0.00;0.00;;;;;20.02;69.07;100737.22;5104817;27;45339;-67
2021/06/27 04:03:31;;;;;;;;;0.00;0.00;;;;;20.04;68.68;100739.69;5123375;27;45675;-67
2021/06/27 04:05:57;;;;;;;;;0.00;0.00;;;;;20.00;68.72;100739.25;5107178;27;45185;-67
2021/06/27 04:08:22;;;;;;;;;0.00;0.00;;;;;19.98;69.05;100735.09;5112256;27;45265;-67
2021/06/27 04:10:48;;;;;;;;;0.00;0.00;;;;;19.97;68.62;100734.25;5123161;27;45220;-68
2021/06/27 04:13:13;;;;;;;;;0.00;0.00;;;;;19.95;68.47;100730.94;5114320;27;45424;-68
2021/06/27 04:15:38;;;;;;;;;0.00;0.00;;;;;19.93;69.20;100721.47;5105171;27;45531;-67
2021/06/27 04:18:07;;;;;;;;;0.00;0.00;;;;;19.93;68.74;100726.81;5123268;27;45474;-67
2021/06/27 04:20:33;;;;;;;;;0.00;0.00;;;;;19.96;69.28;100721.13;5122872;27;45370;-67
2021/06/27 04:22:58;;;;;;;;;0.00;0.00;;;;;19.98;69.28;100721.78;5123483;27;45724;-67
2021/06/27 04:25:24;;;;;;;;;0.00;0.00;;;;;20.01;69.19;100726.75;5123498;27;45376;-67
2021/06/27 04:27:49;;;;;;;;;0.00;0.00;;;;;20.05;69.14;100718.19;5122920;27;46438;-66
2021/06/27 04:30:15;;;;;;;;;0.00;0.00;;;;;20.11;68.85;100724.66;5122947;27;45322;-66
2021/06/27 04:32:41;;;;;;;;;0.00;0.00;;;;;20.13;68.66;100713.78;5122904;27;45338;-67
2021/06/27 04:35:07;;;;;;;;;0.00;0.00;;;;;20.16;68.67;100724.09;5103841;27;45294;-67
2021/06/27 04:37:33;;;;;;;;;0.00;0.00;;;;;20.18;68.84;100722.06;5122795;27;45733;-67
2021/06/27 04:39:58;;;;;;;;;0.00;0.00;;;;;20.19;68.75;100715.72;5122580;27;45379;-67
2021/06/27 04:42:24;;;;;;;;;0.00;0.00;;;;;20.19;68.61;100713.06;5122572;27;45425;-67
2021/06/27 04:44:49;;;;;;;;;0.00;0.00;;;;;20.22;68.66;100724.19;5104352;27;45261;-67
2021/06/27 04:47:15;;;;;;;;;0.00;0.00;;;;;20.24;68.36;100724.84;5122627;27;46095;-67
2021/06/27 04:49:42;;;;;;;;;0.00;0.00;;;;;20.24;68.38;100716.00;5122354;27;45402;-67
2021/06/27 04:52:09;;;;;;;;;0.00;0.00;;;;;20.24;68.32;100719.50;5122464;27;45319;-67
2021/06/27 04:54:35;;;;;;;;;0.00;0.00;;;;;20.24;68.28;100719.50;5122773;27;45554;-67
2021/06/27 04:57:01;;;;;;;;;0.00;0.00;;;;;20.27;68.25;100735.13;5122436;27;46527;-66
2021/06/27 04:59:26;;;;;;;;;0.00;0.00;;;;;20.30;68.32;100731.25;5122329;27;45382;-67
2021/06/27 05:01:51;;;;;;;;;0.00;0.00;;;;;20.32;68.63;100728.41;5122649;27;45319;-67
2021/06/27 05:04:16;;;;;;;;;0.00;0.00;;;;;20.29;68.20;100711.78;5101830;27;45715;-67
2021/06/27 05:06:42;;;;;;;;;0.00;0.00;;;;;20.34;68.44;100718.41;5091632;27;47986;-67
2021/06/27 05:09:07;;;;;;;;;0.00;0.00;;;;;20.36;67.76;100721.72;5103817;27;45191;-67
2021/06/27 05:11:33;;;;;;;;;0.00;0.00;;;;;20.36;68.08;100727.03;5122353;27;45414;-67
2021/06/27 05:13:58;;;;;;;;;0.00;0.00;;;;;20.37;67.85;100726.88;5119521;27;45204;-67
2021/06/27 05:16:24;;;;;;;;;0.00;0.00;;;;;20.37;67.78;100723.38;5109869;27;45271;-66
2021/06/27 05:18:49;;;;;;;;;0.00;0.00;;;;;20.36;68.27;100716.38;5103080;27;45311;-69
2021/06/27 05:21:14;;;;;;;;;0.00;0.00;;;;;20.37;67.69;100718.06;5122377;27;45212;-67
2021/06/27 05:23:39;;;;;;;;;0.00;0.00;;;;;20.38;67.64;100715.19;5122420;27;45397;-67
2021/06/27 05:26:05;;;;;;;;;0.00;0.00;;;;;20.39;68.22;100703.50;5122177;27;45249;-66
2021/06/27 05:28:30;;;;;;;;;0.00;0.00;;;;;20.43;68.20;100710.13;5121991;27;45182;-67
2021/06/27 05:30:57;;;;;;;;;0.00;0.00;;;;;20.48;68.23;100712.25;5103712;27;45487;-67
2021/06/27 05:33:22;;;;;;;;;0.00;0.00;;;;;20.51;67.64;100709.19;5122046;27;45252;-67
2021/06/27 05:35:47;;;;;;;;;0.00;0.00;;;;;20.54;67.92;100705.31;5121684;27;45378;-67
2021/06/27 05:38:13;;;;;;;;;0.00;0.00;;;;;20.56;67.84;100717.50;5103423;27;45318;-67
2021/06/27 05:40:39;;;;;;;;;0.00;0.00;;;;;20.56;67.38;100711.31;5122041;27;45284;-67
2021/06/27 05:43:04;;;;;;;;;0.00;0.00;;;;;20.62;67.22;100726.59;5121946;27;45387;-66
2021/06/27 05:45:30;;;;;;;;;0.00;0.00;;;;;20.63;67.39;100718.44;5102919;27;47053;-67
2021/06/27 05:47:55;;;;;;;;;0.00;0.00;;;;;20.66;67.32;100725.22;5121878;27;45324;-67
2021/06/27 05:50:21;;;;;;;;;0.00;0.00;;;;;20.66;66.74;100718.03;5121771;27;45312;-66
2021/06/27 05:52:46;;;;;;;;;0.00;0.00;;;;;20.66;67.09;100717.22;5103346;27;45572;-66
2021/06/27 05:55:13;;;;;;;;;0.00;0.00;;;;;20.68;67.05;100718.69;5121810;27;46216;-67
2021/06/27 05:57:39;;;;;;;;;0.00;0.00;;;;;20.68;66.99;100716.00;5121405;27;45473;-66
2021/06/27 06:00:05;;;;;;;;;0.00;0.00;;;;;20.67;66.93;100709.03;5121917;27;45239;-68
2021/06/27 06:02:31;;;;;;;;;0.00;0.00;;;;;20.67;66.92;100710.88;5121955;27;45442;-68
2021/06/27 06:04:56;;;;;;;;;0.00;0.00;;;;;20.66;66.88;100712.69;5116620;27;45449;-67
2021/06/27 06:07:21;;;;;;;;;0.00;0.00;;;;;20.67;66.99;100721.56;5119001;27;45376;-67
2021/06/27 06:09:47;;;;;;;;;0.00;0.00;;;;;20.72;66.71;100716.47;5106672;27;45692;-67
2021/06/27 06:12:12;;;;;;;;;0.00;0.00;;;;;20.74;66.65;100722.47;5124409;27;45540;-67
2021/06/27 06:14:37;;;;;;;;;0.00;0.00;;;;;20.74;66.94;100721.66;5111688;27;45682;-67
2021/06/27 06:17:03;;;;;;;;;0.00;0.00;;;;;20.80;66.82;100719.06;5106109;27;45831;-68
2021/06/27 06:19:28;;;;;;;;;0.00;0.00;;;;;20.87;66.72;100727.13;5105696;27;45696;-68
2021/06/27 06:21:54;;;;;;;;;0.00;0.00;;;;;20.94;66.45;100713.88;5092636;27;45586;-68
2021/06/27 06:24:19;;;;;;;;;0.00;0.00;;;;;21.00;65.90;100715.78;5103988;27;46625;-68
2021/06/27 06:26:45;;;;;;;;;0.00;0.00;;;;;21.08;65.96;100716.50;5099542;27;45266;-66
2021/06/27 06:29:11;;;;;;;;;0.00;0.00;;;;;21.13;65.56;100715.94;5124812;27;45261;-68
2021/06/27 06:31:36;;;;;;;;;0.00;0.00;;;;;21.15;65.51;100721.91;5124672;27;45241;-68
2021/06/27 06:34:02;;;;;;;;;0.00;0.00;;;;;21.23;65.50;100723.63;5124320;27;46145;-68
2021/06/27 06:36:28;;;;;;;;;0.00;0.00;;;;;21.27;65.05;100716.88;5124885;27;45433;-67
2021/06/27 06:38:53;;;;;;;;;0.00;0.00;;;;;21.31;64.78;100723.50;5124505;27;45338;-67
2021/06/27 06:41:19;;;;;;;;;0.00;0.00;;;;;21.32;64.91;100711.81;5125081;27;45220;-68
2021/06/27 06:43:45;;;;;;;;;0.00;0.00;;;;;21.39;64.30;100709.22;5105691;27;46583;-67
2021/06/27 06:46:10;;;;;;;;;0.00;0.00;;;;;21.42;63.90;100719.53;5124568;27;45336;-68
2021/06/27 06:48:36;;;;;;;;;0.00;0.00;;;;;21.44;63.88;100723.66;5105357;27;45192;-68
2021/06/27 06:51:01;;;;;;;;;0.00;0.00;;;;;21.46;63.60;100720.81;5106210;27;45295;-69
2021/06/27 06:53:27;;;;;;;;;0.00;0.00;;;;;21.50;63.72;100724.75;5123895;27;46265;-67
2021/06/27 06:55:52;;;;;;;;;0.00;0.00;;;;;21.55;63.61;100726.84;5105598;27;45420;-66
2021/06/27 06:58:18;;;;;;;;;0.00;0.00;;;;;21.58;62.88;100731.84;5123885;27;45447;-67
2021/06/27 07:00:44;;;;;;;;;0.00;0.00;;;;;21.57;62.71;100730.97;5124225;27;45556;-68
2021/06/27 07:03:09;;;;;;;;;0.00;0.00;;;;;21.57;62.60;100722.16;5123660;27;45348;-67
2021/06/27 07:05:35;;;;;;;;;0.00;0.00;;;;;21.60;62.54;100724.44;5110581;27;45363;-68
2021/06/27 07:08:00;;;;;;;;;0.00;0.00;;;;;21.63;62.37;100729.41;5122538;27;45290;-68
2021/06/27 07:10:26;;;;;;;;;0.00;0.00;;;;;21.69;62.26;100729.47;5124525;27;45363;-68
2021/06/27 07:12:51;;;;;;;;;0.00;0.00;;;;;21.74;62.30;100723.53;5101347;27;47489;-68
2021/06/27 07:15:17;;;;;;;;;0.00;0.00;;;;;21.80;62.03;100727.28;5115486;27;45235;-67
2021/06/27 07:17:43;;;;;;;;;0.00;0.00;;;;;21.88;62.51;100725.31;5105375;27;45478;-68
2021/06/27 07:20:10;;;;;;;;;0.00;0.00;;;;;21.99;61.91;100723.94;5123907;27;45531;-68
2021/06/27 07:22:36;;;;;;;;;0.00;0.00;;;;;22.04;61.53;100726.03;5104949;27;48247;-66
2021/06/27 07:25:03;;;;;;;;;0.00;0.00;;;;;22.10;61.02;100728.75;5123761;27;45315;-67
2021/06/27 07:27:28;;;;;;;;;0.00;0.00;;;;;22.20;61.44;100730.25;5105002;27;45366;-67
2021/06/27 07:29:53;;;;;;;;;0.00;0.00;;;;;22.24;60.45;100729.69;5123935;27;45390;-68
2021/06/27 07:32:19;;;;;;;;;0.00;0.00;;;;;22.23;60.83;100721.88;5123334;27;46347;-67
2021/06/27 07:34:44;;;;;;;;;0.00;0.00;;;;;22.28;60.85;100727.44;5123296;27;45303;-68
2021/06/27 07:37:09;;;;;;;;;0.00;0.00;;;;;22.29;60.35;100723.78;5123509;27;45397;-69
2021/06/27 07:39:35;;;;;;;;;0.00;0.00;;;;;22.30;60.37;100722.72;5105155;27;45497;-66
2021/06/27 07:42:00;;;;;;;;;0.00;0.00;;;;;22.39;60.16;100720.72;5123123;27;45358;-68
2021/06/27 07:44:25;;;;;;;;;0.00;0.00;;;;;22.46;60.60;100718.91;5123075;27;45366;-67
2021/06/27 07:46:51;;;;;;;;;0.00;0.00;;;;;22.51;59.88;100719.97;5123226;27;47000;-69
2021/06/27 07:49:16;;;;;;;;;0.00;0.00;;;;;22.52;59.69;100710.09;5104433;27;45625;-68
2021/06/27 07:51:42;;;;;;;;;0.00;0.00;;;;;22.56;59.68;100706.00;5122901;27;45327;-67
2021/06/27 07:54:07;;;;;;;;;1.00;0.00;;;;;22.64;59.67;100702.34;5123150;27;45394;-68
2021/06/27 07:56:33;;;;;;;;;0.00;0.00;;;;;22.65;59.50;100698.63;5122868;27;45386;-68
2021/06/27 07:58:58;;;;;;;;;0.00;0.00;;;;;22.73;59.83;100693.91;5123021;27;45326;-68
2021/06/27 08:01:24;;;;;;;;;0.00;0.00;;;;;22.79;59.66;100691.47;5122556;27;45189;-68
2021/06/27 08:03:49;;;;;;;;;0.00;0.00;;;;;22.83;59.38;100698.91;5103994;27;45911;-68
2021/06/27 08:06:16;;;;;;;;;3.50;3.50;;;;;22.86;59.31;100700.34;5104724;27;45310;-68
2021/06/27 08:08:42;;;;;;;;;0.00;0.00;;;;;22.82;58.23;100699.91;5084168;27;45521;-68
2021/06/27 08:11:08;;;;;;;;;0.00;0.00;;;;;22.78;58.12;100689.81;5102004;27;45434;-67
2021/06/27 08:13:34;;;;;;;;;0.00;0.00;;;;;22.70;58.64;100691.66;5083576;27;46058;-68
2021/06/27 08:15:59;;;;;;;;;0.75;0.75;;;;;22.72;59.00;100692.28;5120442;27;45502;-68
2021/06/27 08:18:25;;;;;;;;;0.00;0.00;;;;;22.79;58.72;100692.31;5104406;27;45395;-68
2021/06/27 08:20:50;;;;;;;;;0.00;0.00;;;;;22.90;58.79;100686.34;5122526;27;46442;-68
2021/06/27 08:23:15;;;;;;;;;0.00;0.00;;;;;23.04;58.89;100689.09;5122474;27;45342;-68
2021/06/27 08:25:42;;;;;;;;;0.00;0.00;;;;;23.09;58.07;100692.00;5122273;27;45302;-68
2021/06/27 08:28:07;;;;;;;;;0.00;0.00;;;;;23.20;58.49;100691.41;5122804;27;45221;-68
2021/06/27 08:30:33;;;;;;;;;0.00;0.00;;;;;23.33;58.63;100698.66;5122544;27;45479;-67
2021/06/27 08:32:58;;;;;;;;;0.00;0.00;;;;;23.50;58.01;100699.91;5122604;27;45165;-68
2021/06/27 08:35:24;;;;;;;;;0.00;0.00;;;;;23.64;57.29;100697.22;5103389;27;45321;-68
2021/06/27 08:37:52;;;;;;;;;0.00;0.00;;;;;23.78;57.14;100712.31;5104295;27;45194;-68
2021/06/27 08:40:19;;;;;;;;;0.00;0.00;;;;;23.87;56.98;100716.44;5122016;27;45407;-68
2021/06/27 08:42:45;;;;;;;;;0.00;0.00;;;;;24.00;57.18;100714.78;5122270;27;45266;-68
2021/06/27 08:45:12;;;;;;;;;0.00;0.00;;;;;24.11;56.21;100717.63;5122475;27;45428;-68
2021/06/27 08:47:39;;;;;;;;;0.25;0.25;;;;;24.14;56.12;100721.75;5103993;27;45362;-67
2021/06/27 08:50:09;;;;;;;;;0.50;0.00;;;;;24.11;55.87;100724.88;5121806;27;46229;-68
2021/06/27 08:52:35;;;;;;;;;0.00;0.00;;;;;23.99;56.12;100721.97;5122251;27;45361;-68
2021/06/27 08:55:00;;;;;;;;;0.00;0.00;;;;;23.95;55.75;100726.94;5103801;27;45771;-68
2021/06/27 08:57:26;;;;;;;;;0.00;0.00;;;;;23.85;55.83;100723.84;5122476;27;45260;-67
2021/06/27 08:59:53;;;;;;;;;0.00;0.00;;;;;23.74;56.43;100725.28;5103060;27;48267;-68
2021/06/27 09:02:19;;;;;;;;;0.00;0.00;;;;;23.68;56.96;100723.41;5103386;27;45823;-68
2021/06/27 09:04:45;;;;;;;;;0.00;0.00;;;;;23.65;57.06;100722.97;5097112;27;45403;-67
2021/06/27 09:07:33;;;;;;;;;0.00;0.00;;;;;23.64;56.97;100721.34;5114606;27;45175;-68
2021/06/27 09:10:04;;;;;;;;;0.00;0.00;;;;;23.56;57.72;100730.41;5121774;27;46201;-68
2021/06/27 09:12:56;;;;;;;;;0.00;0.00;;;;;23.49;58.03;100729.59;5118317;27;45277;-67
2021/06/27 09:15:40;;;;;;;;;0.00;0.00;;;;;23.44;57.85;100730.19;5115347;27;45321;-67
2021/06/27 09:18:14;;;;;;;;;0.00;0.00;;;;;23.34;58.25;100737.81;5122068;27;45507;-67
2021/06/27 09:20:44;;;;;;;;;0.00;0.00;;;;;23.22;58.74;100728.69;5088948;27;47093;-68
2021/06/27 09:23:10;;;;;;;;;0.00;0.00;;;;;23.16;58.89;100726.84;5121938;27;45240;-68
2021/06/27 09:25:37;;;;;;;;;0.00;0.00;;;;;23.13;59.02;100734.25;5121507;27;45253;-68
2021/06/27 09:28:18;;;;;;;;;0.00;0.00;;;;;23.05;59.58;100737.13;5121528;27;45316;-68
2021/06/27 09:30:52;;;;;;;;;0.00;0.00;;;;;22.99;60.07;100737.88;5102892;27;48460;-68
2021/06/27 09:33:29;;;;;;;;;0.00;0.00;;;;;22.94;60.26;100737.69;5102427;27;45323;-68
2021/06/27 09:36:11;;;;;;;;;0.00;0.00;;;;;22.93;60.25;100744.84;5102825;27;45280;-68
2021/06/27 09:38:39;;;;;;;;;0.00;0.00;;;;;22.96;59.92;100748.16;5122609;27;45422;-68
2021/06/27 09:41:22;;;;;;;;;0.00;0.00;;;;;22.97;60.24;100745.28;5124523;27;46587;-67
2021/06/27 09:43:54;;;;;;;;;0.00;0.00;;;;;23.00;60.18;100744.94;5124809;27;45250;-67
2021/06/27 09:46:43;;;;;;;;;0.00;0.00;;;;;23.07;60.04;100748.47;5124530;27;45425;-68
2021/06/27 09:49:29;;;;;;;;;0.00;0.00;;;;;23.12;60.26;100751.34;5124748;27;45233;-69
2021/06/27 09:52:05;;;;;;;;;0.00;0.00;;;;;23.13;60.44;100746.81;5105867;27;47480;-69
2021/06/27 09:54:30;;;;;;;;;0.00;0.00;;;;;23.18;60.21;100762.31;5124684;27;45186;-68
2021/06/27 09:56:56;;;;;;;;;0.00;0.00;;;;;23.21;60.20;100757.34;5105830;27;45317;-67
2021/06/27 09:59:38;;;;;;;;;0.00;0.00;;;;;23.27;60.45;100753.06;5124799;27;45296;-68
2021/06/27 10:02:05;;;;;;;;;0.00;0.00;;;;;23.31;59.98;100751.63;5124653;27;45405;-68
2021/06/27 10:04:38;;;;;;;;;0.00;0.00;;;;;23.41;59.65;100760.09;5120331;27;45264;-68
2021/06/27 10:07:05;;;;;;;;;0.00;0.00;;;;;23.44;59.25;100770.41;5104212;27;45316;-68
2021/06/27 10:09:39;;;;;;;;;0.00;0.00;;;;;23.43;59.26;100771.41;5123301;27;45574;-68
2021/06/27 10:12:09;;;;;;;;;0.00;0.00;;;;;23.35;59.30;100774.31;5124320;27;46291;-68
2021/06/27 10:14:55;;;;;;;;;0.00;0.00;;;;;23.25;59.84;100777.34;5110427;27;45318;-67
2021/06/27 10:17:23;;;;;;;;;0.00;0.00;;;;;23.20;60.39;100781.69;5088904;27;45484;-68
2021/06/27 10:19:49;;;;;;;;;0.00;0.00;;;;;23.21;60.41;100781.47;5124417;27;45216;-68
2021/06/27 10:22:15;;;;;;;;;0.00;0.00;;;;;23.29;60.52;100783.16;5105361;27;48414;-68
2021/06/27 10:24:40;;;;;;;;;0.00;0.00;;;;;23.41;59.99;100784.22;5124375;27;45327;-68
2021/06/27 10:27:07;;;;;;;;;0.00;0.00;;;;;23.45;59.93;100784.63;5105817;27;45458;-68
2021/06/27 10:29:37;;;;;;;;;0.00;0.00;;;;;23.54;60.02;100781.56;5105736;27;45361;-67
2021/06/27 10:32:02;;;;;;;;;0.00;0.00;;;;;23.63;59.69;100787.56;5104948;27;46265;-67
2021/06/27 10:34:28;;;;;;;;;0.00;0.00;;;;;;;;5104973;27;45693;-67
2021/06/27 10:37:04;;;;;;;;;0.00;0.00;;;;;23.92;59.95;100791.72;5124344;27;45350;-68
2021/06/27 10:39:30;;;;;;;;;0.00;0.00;;;;;24.10;59.15;100790.28;5105701;27;45293;-68
2021/06/27 10:42:00;;;;;;;;;0.00;0.00;;;;;24.26;58.88;100792.56;5105327;27;47262;-67
2021/06/27 10:44:37;;;;;;;;;0.00;0.00;;;;;24.32;58.53;100794.41;5124062;27;45406;-68
2021/06/27 10:47:04;;;;;;;;;0.00;0.00;;;;;24.36;58.38;100792.97;5104968;27;45291;-68
2021/06/27 10:49:32;;;;;;;;;0.00;0.00;;;;;24.36;58.22;100801.03;5123652;27;45607;-67
2021/06/27 10:52:01;;;;;;;;;0.00;0.00;;;;;24.42;57.45;100799.34;5105499;27;46148;-68
2021/06/27 10:54:28;;;;;;;;;0.00;0.00;;;;;24.50;58.08;100795.66;5105312;27;45289;-68
2021/06/27 10:57:02;;;;;;;;;0.00;0.00;;;;;24.45;57.36;100803.47;5124327;27;45251;-67
2021/06/27 10:59:40;;;;;;;;;0.00;0.00;;;;;24.22;57.39;100801.22;5123586;27;45237;-68
2021/06/27 11:02:17;;;;;;;;;0.00;0.00;;;;;24.00;57.10;100804.13;5123824;27;47133;-67
2021/06/27 11:04:47;;;;;;;;;0.00;0.00;;;;;23.84;57.07;100799.97;5117763;27;45334;-68
2021/06/27 11:07:31;;;;;;;;;0.00;0.00;;;;;23.75;57.74;100799.34;5115494;27;45341;-67
2021/06/27 11:10:18;;;;;;;;;0.00;0.00;;;;;23.80;58.80;100796.06;5123911;27;45475;-68
2021/06/27 11:12:59;;;;;;;;;0.00;0.00;;;;;23.87;58.10;100801.44;5118368;27;46888;-67
2021/06/27 11:15:37;;;;;;;;;0.00;0.00;;;;;23.79;59.41;100796.28;5116903;27;45308;-68
2021/06/27 11:18:08;;;;;;;;;0.00;0.00;;;;;23.77;60.49;100801.84;5123349;27;45443;-69
2021/06/27 11:20:47;;;;;;;;;0.00;0.00;;;;;23.83;59.48;100800.19;5122665;27;45396;-67
2021/06/27 11:23:12;;;;;;;;;0.00;0.00;;;;;23.86;60.03;100794.41;5123082;27;46701;-68
2021/06/27 11:25:42;;;;;;;;;0.00;0.00;;;;;23.92;59.33;100809.69;5122574;27;45205;-68
2021/06/27 11:28:16;;;;;;;;;0.00;0.00;;;;;23.95;59.02;100806.59;5123285;27;45395;-69